Time;durP1;ratioP1;P1;durP2;ratioP2;P2;SDS_P1;SDS_P2;PMS_P1;PMS_P2;Temp;Humidity;BMP_temperature;BMP_pressure;BME280_temperature;BME280_humidity;BME280_pressure;Samples;Min_cycle;Max_cycle;Signal;HPM_P1;HPM_P2
2021/07/26 00:01:25;;;;;;;18.45;13.23;;;;;;;17.07;93.42;100984.16;6127527;23;20327;-81
2021/07/26 00:03:50;;;;;;;24.15;15.63;;;;;;;17.09;93.61;100987.69;6126962;23;20006;-83
2021/07/26 00:06:15;;;;;;;22.95;14.90;;;;;;;17.09;93.67;100982.38;6127699;23;20081;-79
2021/07/26 00:08:41;;;;;;;21.65;15.13;;;;;;;17.08;93.90;100980.59;6127750;23;20325;-83
2021/07/26 00:11:11;;;;;;;24.20;16.17;;;;;;;17.07;93.92;100976.16;6126890;23;20158;-84
2021/07/26 00:13:38;;;;;;;23.35;15.95;;;;;;;17.06;93.95;100974.41;6127710;23;20030;-81
2021/07/26 00:16:05;;;;;;;28.02;16.67;;;;;;;17.04;93.98;100973.53;6127507;23;20489;-83
2021/07/26 00:18:31;;;;;;;24.85;16.50;;;;;;;17.03;94.21;100977.09;6127467;23;20104;-80
2021/07/26 00:20:59;;;;;;;21.88;15.77;;;;;;;17.03;93.99;100977.09;6127413;23;20060;-83
2021/07/26 00:23:25;;;;;;;19.55;13.90;;;;;;;17.04;94.03;100978.88;6101819;23;20026;-77
2021/07/26 00:25:52;;;;;;;28.90;17.85;;;;;;;17.04;94.09;100970.88;6126852;23;20073;-79
2021/07/26 00:28:17;;;;;;;28.02;18.45;;;;;;;17.04;94.31;100973.53;6127491;23;20021;-82
2021/07/26 00:30:42;;;;;;;29.98;19.83;;;;;;;17.08;93.85;100966.41;6127138;23;20006;-77
2021/07/26 00:36:20;;;;;;;29.15;19.95;;;;;;;17.07;94.13;100973.50;6127219;23;20508;-77
2021/07/26 00:38:45;;;;;;;30.65;20.48;;;;;;;17.05;94.18;100969.09;6126742;23;20015;-78
2021/07/26 00:41:11;;;;;;;28.52;18.13;;;;;;;17.01;94.06;100970.88;6127774;23;20001;-81
2021/07/26 00:43:56;;;;;;;32.53;21.60;;;;;;;16.99;94.26;100965.59;6127280;23;20002;-78
2021/07/26 00:46:21;;;;;;;33.58;21.80;;;;;;;16.97;94.26;100966.50;6127062;23;20413;-78
2021/07/26 00:48:47;;;;;;;29.75;21.33;;;;;;;16.96;94.28;100954.13;6127133;23;20002;-78
2021/07/26 00:51:34;;;;;;;29.23;20.20;;;;;;;16.90;94.09;100948.84;6127304;23;20021;-79
2021/07/26 00:53:59;;;;;;;30.08;19.90;;;;;;;16.83;94.03;100954.19;6127328;23;20381;-80
2021/07/26 00:56:25;;;;;;;36.20;20.25;;;;;;;16.78;93.59;100942.72;6126864;23;20006;-79
2021/07/26 00:58:51;;;;;;;32.50;19.52;;;;;;;16.77;93.54;100943.59;6128044;23;20002;-78
2021/07/26 01:01:17;;;;;;;34.88;21.27;;;;;;;16.77;93.24;100943.59;6127326;23;20009;-83
2021/07/26 01:03:44;;;;;;;36.75;22.52;;;;;;;16.77;93.49;100953.34;6127447;23;20012;-77
2021/07/26 01:06:13;;;;;;;35.83;23.00;;;;;;;16.77;93.39;100948.03;6127017;23;20026;-83
2021/07/26 01:08:45;;;;;;;38.95;23.95;;;;;;;16.77;93.73;100948.03;6127119;23;20009;-78
2021/07/26 01:11:10;;;;;;;38.22;23.60;;;;;;;16.72;93.88;100950.72;6127937;23;20013;-78
2021/07/26 01:13:36;;;;;;;36.85;22.95;;;;;;;16.65;94.09;100949.00;6126979;23;20013;-80
2021/07/26 01:16:03;;;;;;;37.15;22.60;;;;;;;16.60;94.10;100956.09;6101625;23;20006;-81
2021/07/26 01:18:28;;;;;;;35.42;22.08;;;;;;;16.56;94.38;100951.72;6127304;23;20012;-78
2021/07/26 01:21:17;;;;;;;34.03;23.40;;;;;;;16.51;94.24;100944.66;6127278;23;20010;-79
2021/07/26 01:23:48;;;;;;;39.00;22.88;;;;;;;16.46;94.35;100943.78;6126679;23;20042;-78
2021/07/26 01:26:23;;;;;;;38.75;24.08;;;;;;;16.43;94.46;100945.59;6126878;23;20445;-81
2021/07/26 01:28:51;;;;;;;41.08;24.88;;;;;;;16.45;94.36;100952.66;6127311;23;20088;-77
2021/07/26 01:31:17;;;;;;;47.75;27.58;;;;;;;16.46;94.87;100945.59;6127088;23;20010;-81
2021/07/26 01:33:44;;;;;;;50.22;27.95;;;;;;;16.48;94.72;100947.34;6126757;23;20012;-82
2021/07/26 01:36:11;;;;;;;42.78;28.17;;;;;;;16.50;95.13;100953.50;6126963;23;20005;-77
2021/07/26 01:38:36;;;;;;;44.70;28.80;;;;;;;16.51;94.94;100955.28;6127580;23;20061;-81
2021/07/26 01:41:07;;;;;;;59.13;29.08;;;;;;;16.53;95.22;100957.91;6127057;23;20009;-81
2021/07/26 01:43:37;;;;;;;53.33;31.02;;;;;;;16.56;95.11;100951.72;6127180;23;20333;-80
2021/07/26 01:46:20;;;;;;;57.40;31.70;;;;;;;16.58;95.21;100957.91;6127305;23;20017;-80
2021/07/26 01:49:11;;;;;;;66.20;36.40;;;;;;;16.62;95.61;100957.00;6127123;23;20018;-80
2021/07/26 01:51:54;;;;;;;62.97;35.47;;;;;;;16.66;95.51;100961.41;6110150;23;20017;-78
2021/07/26 01:54:19;;;;;;;57.22;32.25;;;;;;;16.69;95.65;100959.56;6126655;23;20010;-79
2021/07/26 01:56:45;;;;;;;59.25;34.15;;;;;;;16.70;95.60;100963.13;6126610;23;20010;-78
2021/07/26 01:59:11;;;;;;;49.80;32.63;;;;;;;16.71;95.82;100964.88;6127516;23;20037;-83
2021/07/26 02:01:36;;;;;;;54.80;32.55;;;;;;;16.73;95.47;100960.44;6126957;23;20028;-80
2021/07/26 02:04:02;;;;;;;52.65;31.75;;;;;;;16.75;95.37;100956.00;6126460;23;20002;-80
2021/07/26 02:06:27;;;;;;;50.67;31.30;;;;;;;16.79;95.62;100962.19;6127354;23;20002;-81
2021/07/26 02:08:52;;;;;;;54.53;31.52;;;;;;;16.79;95.62;100952.44;6126652;23;20329;-77
2021/07/26 02:11:22;;;;;;;54.03;33.20;;;;;;;16.80;95.15;100948.00;6126939;23;20030;-84
2021/07/26 02:13:51;;;;;;;56.78;33.50;;;;;;;16.77;95.44;100948.91;6126755;23;20010;-81
2021/07/26 02:16:18;;;;;;;55.15;32.42;;;;;;;16.78;95.11;100950.69;6126456;23;20348;-78
2021/07/26 02:18:44;;;;;;;54.63;32.38;;;;;;;16.77;95.32;100956.88;6127330;23;20060;-78
2021/07/26 02:21:09;;;;;;;51.42;31.77;;;;;;;16.76;95.07;100952.44;6128907;23;20358;-84
2021/07/26 02:23:34;;;;;;;49.00;31.95;;;;;;;16.75;95.10;100945.38;6128472;23;20022;-78
2021/07/26 02:26:00;;;;;;;45.17;31.25;;;;;;;16.73;94.93;100947.16;6128797;23;20331;-78
2021/07/26 02:28:25;;;;;;;48.15;32.55;;;;;;;16.75;94.96;100945.38;6128530;23;20013;-77
2021/07/26 02:30:51;;;;;;;50.63;31.98;;;;;;;16.77;95.03;100938.28;6128446;23;20002;-76
2021/07/26 02:33:16;;;;;;;46.15;31.45;;;;;;;16.78;94.78;100940.06;6128470;23;20044;-80
2021/07/26 02:35:41;;;;;;;48.90;31.48;;;;;;;16.81;94.70;100940.00;6127671;23;20002;-80
2021/07/26 02:38:07;;;;;;;48.45;30.13;;;;;;;16.81;94.65;100945.34;6128319;23;20014;-79
2021/07/26 02:40:32;;;;;;;41.55;29.65;;;;;;;16.83;94.54;100947.97;6128675;23;20029;-78
2021/07/26 02:42:58;;;;;;;42.95;29.85;;;;;;;16.86;94.39;100946.19;6128667;23;20381;-76
2021/07/26 02:45:25;;;;;;;35.28;24.63;;;;;;;16.88;94.19;100943.50;6129177;23;20005;-82
2021/07/26 02:47:50;;;;;;;38.22;27.00;;;;;;;16.89;94.31;100949.69;6102365;23;20069;-80
2021/07/26 02:50:16;;;;;;;38.88;27.45;;;;;;;16.86;94.31;100948.84;6128004;23;20010;-81
2021/07/26 02:52:41;;;;;;;42.33;28.70;;;;;;;16.85;94.33;100951.50;6128480;23;20014;-81
2021/07/26 02:55:08;;;;;;;47.58;29.33;;;;;;;16.83;94.21;100950.63;6127457;23;20061;-81
2021/07/26 02:57:33;;;;;;;41.58;29.20;;;;;;;16.82;94.52;100949.75;6102426;23;20014;-78
2021/07/26 02:59:59;;;;;;;39.58;28.35;;;;;;;16.85;94.53;100954.16;6128411;23;20500;-78
2021/07/26 03:02:24;;;;;;;43.50;28.05;;;;;;;16.88;94.34;100950.63;6128182;23;20380;-77
2021/07/26 03:04:50;;;;;;;46.20;29.40;;;;;;;16.88;94.49;100955.94;6128326;23;20010;-81
2021/07/26 03:07:15;;;;;;;36.05;24.83;;;;;;;16.92;94.08;100960.34;6128018;23;20405;-78
2021/07/26 03:09:41;;;;;;;42.80;29.15;;;;;;;16.92;94.20;100957.69;6128828;23;20476;-78
2021/07/26 03:12:06;;;;;;;42.55;27.90;;;;;;;16.89;94.23;100957.66;6127955;23;20005;-76
2021/07/26 03:14:32;;;;;;;41.28;28.77;;;;;;;16.86;94.47;100953.25;6127927;23;20009;-80
2021/07/26 03:17:01;;;;;;;41.88;29.10;;;;;;;16.85;94.41;100967.47;6128518;23;20085;-77
2021/07/26 03:19:26;;;;;;;45.30;29.38;;;;;;;16.81;94.49;100963.94;6128232;23;20078;-80
2021/07/26 03:22:30;;;;;;;45.47;31.48;;;;;;;16.80;94.68;100955.97;6128060;23;20330;-80
2021/07/26 03:24:55;;;;;;;49.20;32.20;;;;;;;16.79;94.95;100973.72;6127953;23;20017;-77
2021/07/26 03:27:21;;;;;;;47.88;30.55;;;;;;;16.77;95.17;100970.16;6128174;23;20010;-83
2021/07/26 03:29:46;;;;;;;49.78;31.75;;;;;;;16.76;94.98;100968.38;6127744;23;20012;-78
2021/07/26 03:32:12;;;;;;;48.63;32.55;;;;;;;16.76;94.84;100970.19;6128115;23;20306;-77
2021/07/26 03:34:37;;;;;;;48.78;32.72;;;;;;;16.77;95.28;100975.47;6128007;23;20030;-79
2021/07/26 03:37:02;;;;;;;52.40;31.83;;;;;;;16.75;95.14;100966.63;6128204;23;20013;-78
2021/07/26 03:39:28;;;;;;;51.63;33.22;;;;;;;16.73;95.21;100965.75;6128010;23;20006;-79
2021/07/26 03:41:57;;;;;;;50.20;32.78;;;;;;;16.73;95.48;100968.41;6127469;23;20012;-80
2021/07/26 03:44:24;;;;;;;55.08;32.28;;;;;;;16.69;95.51;100972.88;6127299;23;20006;-80
2021/07/26 03:46:49;;;;;;;51.00;32.15;;;;;;;16.68;95.38;100964.91;6101750;23;20361;-76
2021/07/26 03:49:15;;;;;;;54.30;32.60;;;;;;;16.67;95.42;100969.34;6127895;23;20010;-76
2021/07/26 03:51:40;;;;;;;61.15;34.25;;;;;;;16.68;95.49;100964.91;6127702;23;20010;-80
2021/07/26 03:54:05;;;;;;;59.15;34.80;;;;;;;16.70;96.14;100971.13;6127928;23;20025;-79
2021/07/26 03:56:31;;;;;;;59.95;35.85;;;;;;;16.74;95.98;100969.28;6127203;23;20013;-78
2021/07/26 03:58:56;;;;;;;56.80;35.85;;;;;;;16.76;96.35;100970.19;6127303;23;20044;-81
2021/07/26 04:01:21;;;;;;;62.40;35.35;;;;;;;16.79;96.08;100972.81;6127597;23;20091;-79
2021/07/26 04:03:47;;;;;;;54.80;33.85;;;;;;;16.80;96.20;100963.94;6127601;23;20077;-80
2021/07/26 04:06:15;;;;;;;60.05;33.60;;;;;;;16.81;96.44;100971.91;6127756;23;20455;-81
2021/07/26 04:08:42;;;;;;;56.20;33.45;;;;;;;16.82;96.20;100971.03;6102295;23;20041;-77
2021/07/26 04:11:12;;;;;;;56.22;32.63;;;;;;;16.85;96.09;100978.97;6127781;23;20014;-77
2021/07/26 04:13:39;;;;;;;51.83;31.55;;;;;;;16.86;96.38;100975.41;6127845;23;20133;-76
2021/07/26 04:16:04;;;;;;;52.83;31.67;;;;;;;16.90;95.70;100980.72;6127529;23;20006;-78
2021/07/26 04:18:30;;;;;;;52.08;32.42;;;;;;;16.91;96.17;100980.72;6126986;23;20032;-77
2021/07/26 04:20:56;;;;;;;57.55;32.00;;;;;;;16.92;95.94;100977.19;6127220;23;20013;-79
2021/07/26 04:23:22;;;;;;;47.35;31.58;;;;;;;16.94;96.01;100977.16;6126967;23;20018;-79
2021/07/26 04:25:51;;;;;;;53.58;32.30;;;;;;;16.94;96.00;100972.75;6127090;23;20024;-74
2021/07/26 04:28:17;;;;;;;53.10;31.88;;;;;;;16.97;95.99;100967.41;6128064;23;20134;-78
2021/07/26 04:30:42;;;;;;;50.53;31.55;;;;;;;17.01;96.16;100984.19;6127385;23;20022;-80
2021/07/26 04:33:09;;;;;;;46.28;29.90;;;;;;;17.05;95.59;100969.09;6127155;23;20364;-79
2021/07/26 04:35:35;;;;;;;44.60;28.15;;;;;;;17.07;95.75;100967.31;6126957;23;20006;-80
2021/07/26 04:38:00;;;;;;;41.00;27.60;;;;;;;17.10;95.56;100968.16;6127050;23;20085;-80
2021/07/26 04:40:26;;;;;;;42.42;26.08;;;;;;;17.10;nan;100962.84;6127018;23;20065;-79
2021/07/26 04:42:53;;;;;;;37.25;25.17;;;;;;;17.11;94.67;100969.94;6126866;23;20085;-80
2021/07/26 04:45:19;;;;;;;34.50;25.30;;;;;;;17.11;94.72;100974.38;6127192;23;20002;-76
2021/07/26 04:47:44;;;;;;;37.42;24.48;;;;;;;17.08;94.28;100975.28;6126960;23;20005;-78
2021/07/26 04:50:10;;;;;;;35.72;26.80;;;;;;;17.09;94.44;100981.47;6127167;23;20001;-75
2021/07/26 04:52:35;;;;;;;36.45;26.58;;;;;;;17.09;94.70;100982.38;6101585;23;20455;-81
2021/07/26 04:55:01;;;;;;;39.20;25.85;;;;;;;17.13;94.42;100989.44;6127054;23;20035;-81
2021/07/26 04:57:27;;;;;;;40.28;26.83;;;;;;;17.15;94.53;100979.66;6101935;23;20354;-79
2021/07/26 04:59:52;;;;;;;34.70;26.08;;;;;;;17.21;94.63;100980.50;6126982;23;20009;-77
2021/07/26 05:02:17;;;;;;;38.90;26.30;;;;;;;17.23;95.03;100984.91;6126597;23;20030;-82
2021/07/26 05:04:45;;;;;;;35.80;26.13;;;;;;;17.28;94.44;100982.19;6101239;23;20006;-76
2021/07/26 05:07:11;;;;;;;36.03;24.10;;;;;;;17.36;94.47;100988.31;6127079;23;20060;-75
2021/07/26 05:09:40;;;;;;;34.72;24.92;;;;;;;17.42;94.41;100985.63;6126587;23;20041;-80
2021/07/26 05:12:12;;;;;;;34.20;24.30;;;;;;;17.46;93.99;100981.16;6126635;23;20021;-79
2021/07/26 05:14:55;;;;;;;34.67;24.73;;;;;;;17.49;93.95;100979.34;6127097;23;20018;-76
2021/07/26 05:17:23;;;;;;;38.10;24.60;;;;;;;17.51;94.20;100966.91;6126995;23;20137;-75
2021/07/26 05:19:49;;;;;;;36.25;23.58;;;;;;;17.55;93.73;100965.09;6127053;23;20252;-76
2021/07/26 05:22:15;;;;;;;32.60;23.05;;;;;;;17.58;93.42;100969.50;6126996;23;20009;-81
2021/07/26 05:24:40;;;;;;;34.85;22.83;;;;;;;17.59;93.26;100981.91;6127171;23;20353;-79
2021/07/26 05:27:28;;;;;;;41.08;25.27;;;;;;;17.61;93.02;100972.16;6126658;23;20006;-76
2021/07/26 05:29:53;;;;;;;41.95;24.85;;;;;;;17.67;93.81;100980.03;6126630;23;20013;-80
2021/07/26 05:32:19;;;;;;;45.58;25.63;;;;;;;17.77;94.29;100980.81;6126838;23;20002;-79
2021/07/26 05:34:52;;;;;;;38.63;26.08;;;;;;;17.84;94.14;100978.09;6126654;23;20370;-78
2021/07/26 05:37:17;;;;;;;30.45;25.30;;;;;;;17.93;93.68;100981.56;6100812;23;20010;-79
2021/07/26 05:39:43;;;;;;;34.25;22.77;;;;;;;18.04;93.15;100984.97;6126814;23;20476;-81
2021/07/26 05:42:10;;;;;;;32.80;21.45;;;;;;;18.20;92.40;100970.59;6126661;23;20044;-80
2021/07/26 05:44:42;;;;;;;30.90;22.10;;;;;;;18.42;92.51;100964.97;6126498;23;20323;-79
2021/07/26 05:47:27;;;;;;;28.08;20.85;;;;;;;18.55;91.56;100965.66;6126418;23;20071;-79
2021/07/26 05:49:53;;;;;;;24.55;19.25;;;;;;;18.82;90.64;100964.34;6126034;23;20014;-77
2021/07/26 05:52:18;;;;;;;24.10;19.30;;;;;;;19.08;90.80;100967.56;6126972;23;20010;-79
2021/07/26 05:54:44;;;;;;;22.55;18.50;;;;;;;19.43;89.70;100958.91;6101701;23;20010;-78
2021/07/26 05:57:13;;;;;;;26.08;17.60;;;;;;;19.61;87.40;100967.50;6128459;23;20093;-78
2021/07/26 05:59:38;;;;;;;29.05;17.17;;;;;;;19.66;87.34;100962.97;6128737;23;20009;-82
2021/07/26 06:02:04;;;;;;;21.85;16.15;;;;;;;19.65;86.85;100951.38;6128533;23;20088;-78
2021/07/26 06:04:30;;;;;;;16.35;14.57;;;;;;;19.64;85.78;100960.31;6128750;23;20021;-81
2021/07/26 06:06:55;;;;;;;21.35;14.95;;;;;;;19.66;86.50;100962.97;6128774;23;20006;-81
2021/07/26 06:09:22;;;;;;;20.60;14.85;;;;;;;19.80;85.64;100966.25;6129048;23;20526;-78
2021/07/26 06:12:07;;;;;;;21.20;14.95;;;;;;;19.92;84.86;100964.25;6128267;23;20438;-79
2021/07/26 06:14:33;;;;;;;18.60;15.70;;;;;;;19.90;85.63;100976.75;6127857;23;20014;-80
2021/07/26 06:16:59;;;;;;;20.98;15.25;;;;;;;19.90;86.08;100972.31;6128117;23;20002;-82
2021/07/26 06:19:44;;;;;;;19.85;15.95;;;;;;;19.84;86.31;100978.63;6129194;23;20009;-80
2021/07/26 06:22:10;;;;;;;21.75;15.82;;;;;;;19.87;86.94;100986.59;6128525;23;20029;-81
2021/07/26 06:24:35;;;;;;;19.08;14.93;;;;;;;19.84;85.39;100975.09;6128208;23;20024;-78
2021/07/26 06:27:01;;;;;;;22.42;15.90;;;;;;;19.96;86.00;100972.16;6128677;23;20006;-78
2021/07/26 06:29:48;;;;;;;28.55;14.98;;;;;;;20.26;85.55;100979.59;6127754;23;20307;-77
2021/07/26 06:32:14;;;;;;;19.00;15.35;;;;;;;20.50;84.05;100978.16;6128301;23;20010;-77
2021/07/26 06:34:39;;;;;;;20.60;14.80;;;;;;;20.60;83.84;100968.13;6127871;23;20005;-78
2021/07/26 06:37:06;;;;;;;21.10;14.13;;;;;;;20.60;83.85;100976.16;6128271;23;20029;-80
2021/07/26 06:39:31;;;;;;;20.55;14.10;;;;;;;20.40;82.68;100974.78;6128282;23;20318;-77
2021/07/26 06:41:57;;;;;;;24.08;15.18;;;;;;;20.34;84.06;100983.84;6128303;23;20072;-77
2021/07/26 06:44:23;;;;;;;22.92;16.20;;;;;;;20.29;84.41;100991.06;6128960;23;20037;-76
2021/07/26 06:47:08;;;;;;;21.10;15.80;;;;;;;20.01;85.01;101001.47;6128429;23;20417;-79
2021/07/26 06:49:33;;;;;;;20.75;17.67;;;;;;;19.78;86.34;101008.09;6102186;23;20093;-78
2021/07/26 06:51:59;;;;;;;24.13;19.05;;;;;;;19.63;86.35;101005.69;6128528;23;20066;-81
2021/07/26 06:54:25;;;;;;;22.42;19.48;;;;;;;19.53;86.78;101013.91;6128431;23;20024;-79
2021/07/26 06:56:50;;;;;;;28.23;20.60;;;;;;;19.40;87.63;101015.03;6128550;23;19998;-83
2021/07/26 06:59:15;;;;;;;27.33;23.27;;;;;;;19.25;88.40;101015.25;6128208;23;20434;-81
2021/07/26 07:01:42;;;;;;;25.88;21.27;;;;;;;19.25;88.39;101015.25;6128046;23;20010;-77
2021/07/26 07:04:08;;;;;;;26.58;20.02;;;;;;;19.21;88.02;101017.13;6128821;23;20521;-77
2021/07/26 07:06:33;;;;;;;25.08;22.45;;;;;;;19.27;89.52;101025.00;6127959;23;20072;-77
2021/07/26 07:08:59;;;;;;;30.45;23.88;;;;;;;19.34;89.79;101021.34;6128774;23;20040;-80
2021/07/26 07:11:24;;;;;;;27.35;24.23;;;;;;;19.37;90.12;101020.41;6127932;23;20014;-81
2021/07/26 07:13:51;;;;;;;25.80;22.42;;;;;;;19.42;88.65;101018.53;6128264;23;20062;-77
2021/07/26 07:16:20;;;;;;;29.05;22.67;;;;;;;19.45;88.67;101026.50;6128062;23;20020;-77
2021/07/26 07:18:48;;;;;;;25.42;21.52;;;;;;;19.40;88.63;101020.38;6128076;23;20016;-78
2021/07/26 07:21:39;;;;;;;24.85;22.15;;;;;;;19.37;88.66;101010.63;6128319;23;20006;-80
2021/07/26 07:24:05;;;;;;;26.02;21.55;;;;;;;19.39;88.87;101021.25;6127634;23;20022;-79
2021/07/26 07:26:31;;;;;;;22.55;19.13;;;;;;;19.44;88.76;101022.06;6127332;23;20125;-76
2021/07/26 07:28:57;;;;;;;23.27;19.55;;;;;;;19.44;89.48;101026.50;6128360;23;20009;-78
2021/07/26 07:31:32;;;;;;;24.73;19.83;;;;;;;19.42;89.13;101029.22;6128133;23;20370;-75
2021/07/26 07:33:58;;;;;;;23.30;20.77;;;;;;;19.45;89.11;101028.28;6128497;23;20006;-77
2021/07/26 07:36:43;;;;;;;22.70;20.40;;;;;;;19.47;88.67;101023.81;6127765;23;20010;-80
2021/07/26 07:39:09;;;;;;;21.08;18.65;;;;;;;19.57;88.72;101021.84;6127332;23;20010;-78
2021/07/26 07:41:35;;;;;;;21.23;18.83;;;;;;;19.75;88.54;101013.50;6127359;23;20073;-78
2021/07/26 07:44:00;;;;;;;21.85;17.48;;;;;;;20.01;87.64;101014.81;6127537;23;20013;-80
2021/07/26 07:46:26;;;;;;;21.95;19.35;;;;;;;20.11;87.07;101013.72;6127400;23;20298;-80
2021/07/26 07:48:51;;;;;;;24.58;20.42;;;;;;;20.22;86.98;101013.50;6127025;23;20088;-80
2021/07/26 07:51:18;;;;;;;25.52;19.90;;;;;;;20.30;86.15;100999.97;6127280;23;20002;-80
2021/07/26 07:54:03;;;;;;;21.05;18.95;;;;;;;20.41;85.67;101005.09;6101193;23;20072;-81
2021/07/26 07:56:29;;;;;;;21.08;18.13;;;;;;;20.59;85.69;101017.16;6126656;23;20048;-79
2021/07/26 07:58:59;;;;;;;21.65;18.63;;;;;;;20.74;85.23;101022.22;6127827;23;20025;-83
2021/07/26 08:01:31;;;;;;;16.60;14.80;;;;;;;20.74;84.36;101024.00;6127376;23;20441;-82
2021/07/26 08:03:57;;;;;;;23.17;19.48;;;;;;;20.65;86.78;101038.44;6101559;23;20514;-80
2021/07/26 08:06:22;;;;;;;20.83;18.63;;;;;;;20.51;86.45;101034.25;6127055;23;20002;-81
2021/07/26 08:08:47;;;;;;;21.42;18.80;;;;;;;20.36;85.50;101026.56;6126964;23;20053;-79
2021/07/26 08:11:13;;;;;;;18.50;16.60;;;;;;;20.24;85.19;101037.50;6126893;23;20013;-79
2021/07/26 08:13:39;;;;;;;20.48;17.48;;;;;;;20.10;85.17;101035.13;6127277;23;20329;-80
2021/07/26 08:16:25;;;;;;;26.48;20.42;;;;;;;20.05;86.70;101040.56;6127117;23;20330;-81
2021/07/26 08:18:50;;;;;;;23.27;20.10;;;;;;;20.05;87.11;101045.91;6126765;23;20009;-82
2021/07/26 08:21:16;;;;;;;22.27;18.60;;;;;;;20.17;86.77;101045.66;6127128;23;20373;-80
2021/07/26 08:23:42;;;;;;;22.02;18.92;;;;;;;20.26;85.83;101043.72;6100952;23;20441;-80
2021/07/26 08:26:12;;;;;;;20.10;17.95;;;;;;;20.21;85.09;101042.03;6126914;23;20017;-79
2021/07/26 08:28:38;;;;;;;21.30;18.45;;;;;;;20.21;85.49;101042.03;6127214;23;20006;-82
2021/07/26 08:31:03;;;;;;;23.73;20.67;;;;;;;20.14;86.62;101040.34;6101278;23;20017;-81
2021/07/26 08:33:29;;;;;;;27.35;21.88;;;;;;;20.14;86.26;101040.34;6126988;23;20209;-78
2021/07/26 08:36:14;;;;;;;25.83;22.77;;;;;;;20.15;86.84;101038.59;6126829;23;20401;-79
2021/07/26 08:38:40;;;;;;;26.67;23.77;;;;;;;20.12;86.13;101036.84;6127095;23;20013;-79
2021/07/26 08:41:05;;;;;;;25.85;23.08;;;;;;;20.40;86.28;101036.28;6126778;23;20013;-79
2021/07/26 08:43:30;;;;;;;23.48;21.10;;;;;;;20.75;83.89;101023.09;6126661;23;20006;-81
2021/07/26 08:45:57;;;;;;;22.08;19.98;;;;;;;21.27;82.75;101024.53;6126690;23;20006;-80
2021/07/26 08:48:24;;;;;;;20.95;18.75;;;;;;;21.68;80.29;101013.69;6126953;23;20433;-80
2021/07/26 08:51:10;;;;;;;22.55;20.20;;;;;;;21.66;78.97;101011.03;6126750;23;20429;-82
2021/07/26 08:53:56;;;;;;;22.88;20.48;;;;;;;21.86;78.93;101010.47;6126614;23;20017;-79
2021/07/26 08:56:21;;;;;;;26.10;22.52;;;;;;;22.10;79.65;101021.44;6126523;23;20439;-81
2021/07/26 08:58:47;;;;;;;23.13;20.77;;;;;;;22.49;78.90;101015.88;6127008;23;20052;-80
2021/07/26 09:01:33;;;;;;;22.15;19.73;;;;;;;22.78;77.97;101014.06;6127847;23;20029;-82
2021/07/26 09:04:18;;;;;;;19.63;17.70;;;;;;;23.19;74.97;101014.53;6077496;23;20024;-81
2021/07/26 09:06:44;;;;;;;18.77;15.63;;;;;;;23.72;70.36;100997.50;6127150;23;19998;-80
2021/07/26 09:09:10;;;;;;;16.52;14.82;;;;;;;24.79;72.24;101011.50;6127024;23;20006;-82
2021/07/26 09:11:55;;;;;;;12.63;11.30;;;;;;;25.77;68.55;101001.09;6127191;23;20009;-79
2021/07/26 09:14:38;;;;;;;9.48;8.55;;;;;;;26.52;61.98;100994.06;6099294;23;20018;-81
2021/07/26 09:17:23;;;;;;;8.25;7.53;;;;;;;27.08;61.55;100988.69;6127326;23;20010;-80
2021/07/26 09:20:22;;;;;;;9.57;8.75;;;;;;;26.73;59.75;100991.31;6126411;23;20383;-83
2021/07/26 09:22:48;;;;;;;12.20;8.95;;;;;;;25.34;63.44;101008.34;6126756;23;20025;-80
2021/07/26 09:25:19;;;;;;;9.93;9.02;;;;;;;24.91;64.40;101001.09;6128211;23;20002;-83
2021/07/26 09:28:01;;;;;;;9.88;8.98;;;;;;;24.63;67.82;101017.47;6126611;23;20069;-80
2021/07/26 09:30:32;;;;;;;8.98;8.18;;;;;;;24.90;68.42;101009.25;6129231;23;20009;-80
2021/07/26 09:33:00;;;;;;;16.35;7.85;;;;;;;24.49;68.55;101014.44;6129557;23;20014;-82
2021/07/26 09:35:26;;;;;;;9.68;8.77;;;;;;;23.86;69.95;101021.22;6128879;23;20086;-79
2021/07/26 09:37:58;;;;;;;9.40;8.50;;;;;;;23.63;70.34;101024.72;6129075;23;20018;-83
2021/07/26 09:40:25;;;;;;;10.57;7.93;;;;;;;23.38;70.36;101035.41;6128863;23;20006;-83
2021/07/26 09:42:51;;;;;;;8.93;8.02;;;;;;;23.56;71.55;101033.91;6129442;23;20010;-79
2021/07/26 09:45:21;;;;;;;9.68;8.27;;;;;;;23.77;70.28;101021.53;6129434;23;20009;-80
2021/07/26 09:48:05;;;;;;;10.43;9.40;;;;;;;23.70;67.50;101014.63;6129589;23;20310;-80
2021/07/26 09:50:38;;;;;;;11.07;9.98;;;;;;;23.17;70.52;101021.78;6129568;23;20013;-81
2021/07/26 09:53:14;;;;;;;11.82;10.70;;;;;;;22.88;71.22;101023.59;6129533;23;20036;-78
2021/07/26 09:56:19;;;;;;;13.50;10.93;;;;;;;22.51;72.05;101026.53;6129055;23;20082;-81
2021/07/26 09:58:44;;;;;;;15.30;11.38;;;;;;;23.04;75.03;101031.13;6123786;23;20073;-78
2021/07/26 10:01:12;;;;;;;12.27;10.68;;;;;;;24.14;72.66;101030.97;6128676;23;20006;-78
2021/07/26 10:03:38;;;;;;;13.60;11.98;;;;;;;24.47;68.92;101018.97;6128898;23;20009;-82
2021/07/26 10:06:43;;;;;;;14.70;12.63;;;;;;;24.01;67.34;101019.81;6129412;23;20078;-78
2021/07/26 10:09:09;;;;;;;15.57;12.73;;;;;;;23.53;68.32;101018.75;6129567;23;20014;-80
2021/07/26 10:11:34;;;;;;;15.65;13.57;;;;;;;23.08;69.81;101027.44;6128384;23;20461;-80
2021/07/26 10:14:00;;;;;;;16.38;13.73;;;;;;;22.46;72.38;101034.69;6129117;23;20430;-78
2021/07/26 10:16:26;;;;;;;18.70;12.73;;;;;;;22.09;73.95;101038.44;6128582;23;20004;-79
2021/07/26 10:18:52;;;;;;;21.35;16.15;;;;;;;21.53;76.46;101042.63;6129221;23;20423;-83
2021/07/26 10:21:28;;;;;;;22.40;18.75;;;;;;;21.04;81.66;101052.72;6128650;23;20002;-80
2021/07/26 10:24:01;;;;;;;30.98;19.13;;;;;;;20.69;83.62;101034.81;6128201;23;20081;-78
2021/07/26 10:26:44;;;;;;;;;;;;;;;20.57;83.14;101033.25;6129092;23;20021;-80
2021/07/26 10:29:10;;;;;;;29.93;20.33;;;;;;;20.50;84.25;101051.22;6128279;23;20312;-82
2021/07/26 10:31:37;;;;;;;28.27;18.15;;;;;;;20.42;83.29;101034.47;6102570;23;20068;-77
2021/07/26 10:34:07;;;;;;;27.05;17.60;;;;;;;20.52;84.50;101037.81;6128410;23;20068;-82
2021/07/26 10:36:42;;;;;;;20.27;16.63;;;;;;;20.71;83.77;101035.63;6128107;23;20006;-82
2021/07/26 10:39:33;;;;;;;22.67;17.98;;;;;;;21.01;85.54;101043.88;6128072;23;20013;-78
2021/07/26 10:42:32;;;;;;;22.73;16.40;;;;;;;21.53;85.32;101033.72;6127839;23;20036;-79
2021/07/26 10:44:57;;;;;;;26.45;16.40;;;;;;;22.11;82.77;101041.06;6127693;23;20468;-83
2021/07/26 10:47:23;;;;;;;20.70;15.43;;;;;;;22.51;78.13;101029.22;6128445;23;20088;-80
2021/07/26 10:49:53;;;;;;;21.77;17.10;;;;;;;23.19;78.64;101033.34;6128310;23;20020;-80
2021/07/26 10:52:21;;;;;;;18.55;15.25;;;;;;;23.55;75.28;101032.16;6129158;23;20016;-82
2021/07/26 10:54:47;;;;;;;23.73;14.82;;;;;;;23.81;73.62;101025.88;6128263;23;20037;-81
2021/07/26 10:57:13;;;;;;;21.55;15.50;;;;;;;24.00;72.12;101019.88;6129615;23;20010;-79
2021/07/26 11:00:10;;;;;;;20.15;15.30;;;;;;;24.79;69.53;101023.13;6101701;23;20096;-79
2021/07/26 11:02:37;;;;;;;20.63;15.75;;;;;;;26.09;65.67;101009.59;6127775;23;20002;-79
2021/07/26 11:05:23;;;;;;;18.77;15.23;;;;;;;27.32;69.61;101019.00;6128658;23;20017;-82
2021/07/26 11:08:11;;;;;;;17.27;13.68;;;;;;;27.94;63.51;101010.38;6127727;23;20009;-82
2021/07/26 11:11:06;;;;;;;15.32;13.05;;;;;;;28.66;58.09;101004.72;6128532;23;20006;-82
2021/07/26 11:13:52;;;;;;;19.10;13.85;;;;;;;27.93;55.47;101000.50;6127907;23;20010;-80
2021/07/26 11:16:48;;;;;;;23.67;17.02;;;;;;;27.05;58.38;101016.72;6127809;23;20299;-80
2021/07/26 11:19:44;;;;;;;20.35;17.48;;;;;;;25.70;61.96;101015.78;6127644;23;20006;-77
2021/07/26 11:22:16;;;;;;;20.80;13.25;;;;;;;24.89;61.76;101018.25;6097523;23;20307;-80
2021/07/26 11:24:41;;;;;;;27.02;16.27;;;;;;;23.81;66.22;101031.25;6128088;23;20025;-86